createdAt,value
2022-12-12T11:49:19.211Z,-1.50
2022-12-12T11:53:44.752Z,-1.60
2022-12-12T11:58:16.279Z,-1.30
2022-12-12T12:02:51.910Z,-1.50
2022-12-12T12:07:42.270Z,-1.50
2022-12-12T12:12:17.314Z,-1.50
2022-12-12T12:17:16.299Z,-1.60
2022-12-12T12:21:51.150Z,-1.60
2022-12-12T12:26:25.431Z,-1.60
2022-12-12T12:31:05.928Z,-1.50
2022-12-12T12:35:31.374Z,-1.60
2022-12-12T12:40:11.409Z,-1.50
2022-12-12T12:44:41.578Z,-1.60
2022-12-12T12:49:10.418Z,-1.60
2022-12-12T12:53:49.989Z,-1.70
2022-12-12T12:58:21.591Z,-1.70
2022-12-12T13:02:48.270Z,-1.50
2022-12-12T13:07:25.505Z,-1.50
2022-12-12T13:11:47.142Z,-1.50
2022-12-12T13:16:24.861Z,-1.70
2022-12-12T13:20:51.896Z,-1.70
2022-12-12T13:25:48.339Z,-1.60
2022-12-12T13:30:18.240Z,-1.70
2022-12-12T13:34:43.779Z,-1.60
2022-12-12T13:39:02.860Z,-1.70
2022-12-12T13:43:38.137Z,-1.80
2022-12-12T13:48:04.253Z,-1.90
2022-12-12T13:52:23.876Z,-1.90
2022-12-12T13:56:53.673Z,-2.00
2022-12-12T14:01:34.473Z,-2.10
2022-12-12T14:05:53.301Z,-2.10
2022-12-12T14:10:23.431Z,-2.20
2022-12-12T14:14:42.540Z,-2.20
2022-12-12T14:19:06.288Z,-2.10
2022-12-12T14:23:25.273Z,-2.30
2022-12-12T14:27:49.037Z,-2.30
2022-12-12T14:32:22.451Z,-2.40
2022-12-12T14:37:02.737Z,-2.40
2022-12-12T14:41:27.942Z,-2.50
2022-12-12T14:45:50.936Z,-2.50
2022-12-12T14:50:10.190Z,-2.50
2022-12-12T14:54:27.451Z,-2.60
2022-12-12T14:58:57.340Z,-2.80
2022-12-12T15:03:15.402Z,-2.90
2022-12-12T15:07:35.461Z,-3.00
2022-12-12T15:11:54.816Z,-3.00
2022-12-12T15:16:12.001Z,-3.00
2022-12-12T15:20:32.052Z,-3.00
2022-12-12T15:24:49.740Z,-3.00
2022-12-12T15:29:14.744Z,-3.10
2022-12-12T15:33:38.575Z,-3.10
2022-12-12T15:38:00.672Z,-3.00
2022-12-12T15:42:17.784Z,-2.90
2022-12-12T15:46:35.144Z,-2.90
2022-12-12T15:50:57.446Z,-2.90
2022-12-12T15:55:20.923Z,-2.80
2022-12-12T15:59:38.163Z,-2.90
2022-12-12T16:03:59.707Z,-2.90
2022-12-12T16:08:33.325Z,-2.90
2022-12-12T16:13:22.168Z,-3.10
2022-12-12T16:17:39.319Z,-3.20
2022-12-12T16:21:56.624Z,-3.20
2022-12-12T16:26:13.850Z,-3.40
2022-12-12T16:30:31.108Z,-3.40
2022-12-12T16:34:48.302Z,-3.40
2022-12-12T16:39:06.000Z,-3.20
2022-12-12T16:43:24.343Z,-3.10
2022-12-12T16:47:41.670Z,-3.00
2022-12-12T16:51:58.828Z,-3.00
2022-12-12T16:56:16.002Z,-2.90
2022-12-12T17:00:33.352Z,-2.80
2022-12-12T17:04:51.204Z,-2.80
2022-12-12T17:09:08.405Z,-3.00
2022-12-12T17:13:26.247Z,-3.00
2022-12-12T17:17:43.377Z,-3.00
2022-12-12T17:22:00.842Z,-3.00
2022-12-12T17:26:18.980Z,-2.90
2022-12-12T17:30:37.008Z,-2.90
2022-12-12T17:34:54.181Z,-2.80
2022-12-12T17:39:11.368Z,-2.80
2022-12-12T17:43:28.500Z,-2.90
2022-12-12T17:47:45.761Z,-2.70
2022-12-12T17:52:04.017Z,-2.80
2022-12-12T17:56:24.970Z,-2.90
2022-12-12T18:00:42.153Z,-2.90
2022-12-12T18:04:59.721Z,-2.80
2022-12-12T18:09:17.537Z,-3.00
2022-12-12T18:13:36.326Z,-3.10
2022-12-12T18:17:53.460Z,-3.00
2022-12-12T18:22:10.752Z,-2.90
2022-12-12T18:26:28.157Z,-2.80
2022-12-12T18:30:48.529Z,-2.80
2022-12-12T18:35:05.971Z,-2.70
2022-12-12T18:39:23.110Z,-2.80
2022-12-12T18:43:40.445Z,-2.80
2022-12-12T18:47:57.542Z,-2.80
2022-12-12T18:52:14.661Z,-2.70
2022-12-12T18:56:32.555Z,-2.60
2022-12-12T19:00:49.652Z,-2.60
2022-12-12T19:05:07.301Z,-2.80
2022-12-12T19:09:24.485Z,-2.70
2022-12-12T19:13:42.964Z,-2.70
2022-12-12T19:18:00.131Z,-2.70
2022-12-12T19:22:43.795Z,-2.80
2022-12-12T19:26:55.001Z,-2.70
2022-12-12T19:31:16.287Z,-2.70
2022-12-12T19:35:37.659Z,-2.70
2022-12-12T19:39:55.081Z,-2.80
2022-12-12T19:44:14.694Z,-2.70
2022-12-12T19:48:32.243Z,-2.70
2022-12-12T19:52:49.436Z,-2.70
2022-12-12T19:57:06.544Z,-2.70
2022-12-12T20:01:28.390Z,-2.70
2022-12-12T20:05:49.165Z,-2.60
2022-12-12T20:10:10.478Z,-2.60
2022-12-12T20:14:30.319Z,-2.60
2022-12-12T20:18:49.548Z,-2.60
2022-12-12T20:23:07.967Z,-2.80
2022-12-12T20:27:25.121Z,-2.70
2022-12-12T20:31:45.358Z,-2.70
2022-12-12T20:36:05.028Z,-2.70
2022-12-12T20:40:22.602Z,-2.80
2022-12-12T20:44:39.751Z,-2.90
2022-12-12T20:48:58.685Z,-2.80
2022-12-12T20:53:16.975Z,-2.90
2022-12-12T20:57:34.067Z,-3.00
2022-12-12T21:01:52.038Z,-3.00
2022-12-12T21:06:17.788Z,-3.00
2022-12-12T21:10:35.080Z,-3.10
2022-12-12T21:14:52.171Z,-3.10
2022-12-12T21:19:12.747Z,-3.20
2022-12-12T21:23:30.497Z,-3.40
2022-12-12T21:27:47.643Z,-3.50
2022-12-12T21:32:05.249Z,-3.40
2022-12-12T21:36:24.124Z,-3.50
2022-12-12T21:40:41.246Z,-3.50
2022-12-12T21:44:58.368Z,-3.50
2022-12-12T21:49:28.144Z,-3.50
2022-12-12T21:53:45.427Z,-3.60
2022-12-12T21:58:02.660Z,-3.60
2022-12-12T22:02:19.769Z,-3.50
2022-12-12T22:06:37.206Z,-3.80
2022-12-12T22:10:54.642Z,-4.00
2022-12-12T22:15:12.047Z,-4.00
2022-12-12T22:19:29.372Z,-4.10
2022-12-12T22:23:50.628Z,-4.00
2022-12-12T22:28:07.721Z,-4.10
2022-12-12T22:32:24.827Z,-4.20
2022-12-12T22:36:42.483Z,-4.40
2022-12-12T22:40:59.842Z,-4.60
2022-12-12T22:45:17.211Z,-4.80
2022-12-12T22:49:34.495Z,-4.90
2022-12-12T22:53:51.934Z,-5.20
2022-12-12T22:58:09.036Z,-5.50
2022-12-12T23:02:26.276Z,-5.70
2022-12-12T23:06:43.632Z,-6.00
2022-12-12T23:11:12.923Z,-6.20
2022-12-12T23:15:30.476Z,-6.40
2022-12-12T23:19:47.624Z,-6.60
2022-12-12T23:24:06.345Z,-6.80
2022-12-12T23:28:23.505Z,-7.00
2022-12-12T23:32:40.646Z,-7.20
2022-12-12T23:36:58.586Z,-7.40
2022-12-12T23:41:16.662Z,-7.60
2022-12-12T23:45:37.356Z,-7.70
2022-12-12T23:49:54.570Z,-8.00
2022-12-12T23:54:14.421Z,-8.00
2022-12-12T23:58:31.568Z,-8.10
